Other Surface Observations
Issued by NWS Missoula, MT

Home | Current Version | Previous Version | Text Only | Print | Product List | Glossary On
Versions: 1 2 3 4 5 6 7 8 9 10 11 12 13 14 15 16 17 18 19 20 21 22 23 24 25 26 27 28 29 30 31 32 33 34 35 36 37 38 39 40 41 42 43 44 45 46 47 48 49 50
052
SXUS55 KMSO 182303
OSOMSO
MONTANA AWOS SUMMARY
NATIONAL WEATHER SERVICE MISSOULA MT
403 PM MST WED JAN 18 2017

Montana AWOS Reports

LAUREL      |K6S8 182255Z AUTO 22011G15KT 40SM 04/M06 A2966 RMK AO1 T00441055
TWIN BRIDGES|K7S1 182255Z AUTO 21006KT 40SM 01/M08 A2976 RMK AO1 T00111077
SCOBEY      |K9S2 182255Z AUTO 00000KT 40SM 02/M04 A2953 RMK AO1 T00221043
ROUNDUP     |KRPX 182255Z AUTO 18010KT 40SM 07/M06 A2955 RMK AO1 T00671060
EKALAKA     |K97M 182255Z AUTO 13008KT 40SM 03/M05 A2964 RMK AO1 T00331049




USA.gov is the U.S. government's official web portal to all federal, state and local government web resources and services.